Time;durP1;ratioP1;P1;durP2;ratioP2;P2;SDS_P1;SDS_P2;PMS_P1;PMS_P2;Temp;Humidity;BMP_temperature;BMP_pressure;BME280_temperature;BME280_humidity;BME280_pressure;Samples;Min_cycle;Max_cycle;Signal;HPM_P1;HPM_P2
2023/07/03 04:32:15;;;;;;;11.93;4.38;;;17.80;78.90;;;;;;5012251;23;20044;-83
2023/07/03 04:34:41;;;;;;;10.45;4.40;;;17.80;78.40;;;;;;4898773;29;20036;-82
2023/07/03 04:37:08;;;;;;;12.15;4.35;;;17.80;78.70;;;;;;4898782;29;20039;-83
2023/07/03 04:39:34;;;;;;;11.95;5.18;;;17.80;78.40;;;;;;4892948;29;20035;-83
2023/07/03 04:42:00;;;;;;;10.55;4.25;;;17.80;78.70;;;;;;4898967;29;20029;-83
2023/07/03 04:44:27;;;;;;;11.80;4.70;;;17.80;78.50;;;;;;4907264;29;20025;-83
2023/07/03 04:46:56;;;;;;;17.48;4.95;;;17.80;78.50;;;;;;4897708;29;20115;-83
2023/07/03 04:49:29;;;;;;;9.68;4.43;;;17.80;78.40;;;;;;4916150;29;20060;-83
2023/07/03 04:51:55;;;;;;;11.30;4.72;;;17.80;78.50;;;;;;4895289;29;20075;-84
2023/07/03 04:54:21;;;;;;;13.75;4.47;;;17.80;78.50;;;;;;4898613;29;20058;-78
2023/07/03 04:56:48;;;;;;;11.88;4.68;;;17.80;78.30;;;;;;4916087;29;20558;-78
2023/07/03 04:59:14;;;;;;;8.07;4.07;;;17.80;78.30;;;;;;4898167;29;20056;-79
2023/07/03 05:01:43;;;;;;;10.98;4.30;;;17.80;78.20;;;;;;4894348;29;20171;-80
2023/07/03 05:04:12;;;;;;;10.93;4.97;;;17.80;78.40;;;;;;4910291;29;20051;-83
2023/07/03 05:06:38;;;;;;;12.23;4.78;;;17.80;78.10;;;;;;4914328;29;20503;-83
2023/07/03 05:09:05;;;;;;;12.55;4.30;;;17.80;78.20;;;;;;4916489;29;20866;-82
2023/07/03 05:11:32;;;;;;;12.63;4.32;;;17.80;78.20;;;;;;4919218;29;20075;-83
2023/07/03 05:13:58;;;;;;;13.85;4.88;;;17.80;78.20;;;;;;4919372;29;20039;-84
2023/07/03 05:16:24;;;;;;;10.70;4.05;;;17.70;78.20;;;;;;4919833;29;20471;-79
2023/07/03 05:18:49;;;;;;;14.75;4.70;;;17.70;78.40;;;;;;4918660;29;20024;-85
2023/07/03 05:21:15;;;;;;;11.20;4.72;;;17.70;78.10;;;;;;4898896;29;20040;-86
2023/07/03 05:23:41;;;;;;;12.23;4.55;;;17.70;78.30;;;;;;4913546;29;20040;-84
2023/07/03 05:26:06;;;;;;;11.23;4.07;;;17.70;78.20;;;;;;4910570;29;20115;-85
2023/07/03 05:28:33;;;;;;;16.60;4.40;;;17.70;78.30;;;;;;4909478;29;20043;-85
2023/07/03 05:30:59;;;;;;;13.50;4.50;;;17.60;78.10;;;;;;4899509;29;20056;-82
2023/07/03 05:33:27;;;;;;;11.20;4.45;;;17.50;78.40;;;;;;4912882;29;20040;-81
2023/07/03 05:35:54;;;;;;;10.45;4.28;;;17.50;78.40;;;;;;4917822;29;20080;-81
2023/07/03 05:38:20;;;;;;;15.23;4.35;;;17.50;78.40;;;;;;4905707;29;20064;-82
2023/07/03 05:40:46;;;;;;;12.57;4.50;;;17.50;78.60;;;;;;4901649;29;20039;-81
2023/07/03 05:43:13;;;;;;;11.25;5.00;;;17.40;78.80;;;;;;4900959;29;20462;-82
2023/07/03 05:45:40;;;;;;;12.98;4.35;;;17.40;78.90;;;;;;4918887;29;20048;-81
2023/07/03 05:48:05;;;;;;;14.77;4.55;;;17.50;78.90;;;;;;4918620;29;20047;-82
2023/07/03 05:50:31;;;;;;;9.93;4.38;;;17.30;79.00;;;;;;4916406;29;20084;-82
2023/07/03 05:52:57;;;;;;;9.93;4.55;;;17.40;79.10;;;;;;4916585;29;20510;-82
2023/07/03 05:55:22;;;;;;;12.60;4.28;;;17.40;78.90;;;;;;4897355;29;20083;-87
2023/07/03 05:57:48;;;;;;;19.25;5.38;;;17.40;78.80;;;;;;4903522;29;20100;-84
2023/07/03 06:00:14;;;;;;;13.13;4.50;;;17.40;78.80;;;;;;4919080;29;20038;-83
2023/07/03 06:02:41;;;;;;;12.73;4.95;;;17.40;79.00;;;;;;4900461;29;20032;-84
2023/07/03 06:05:07;;;;;;;15.02;4.55;;;17.40;79.00;;;;;;4900825;29;20055;-82
2023/07/03 06:07:33;;;;;;;13.73;4.63;;;17.30;79.10;;;;;;4917424;29;20067;-82
2023/07/03 06:09:59;;;;;;;13.27;4.30;;;17.40;79.30;;;;;;4916348;29;20068;-85
2023/07/03 06:12:29;;;;;;;15.38;4.78;;;17.40;79.20;;;;;;4897977;29;20040;-82
2023/07/03 06:14:59;;;;;;;12.57;4.57;;;17.50;79.00;;;;;;4914790;29;20020;-82
2023/07/03 06:17:25;;;;;;;13.50;4.65;;;17.50;78.90;;;;;;4913607;29;20029;-82
2023/07/03 06:19:51;;;;;;;15.65;4.75;;;17.50;78.80;;;;;;4900112;29;20024;-82
2023/07/03 06:22:17;;;;;;;11.48;4.30;;;17.60;78.80;;;;;;4901741;29;20096;-83
2023/07/03 06:24:43;;;;;;;12.25;4.55;;;17.60;78.90;;;;;;4901347;29;20028;-81
2023/07/03 06:27:09;;;;;;;12.60;4.90;;;17.70;78.80;;;;;;4910464;29;20101;-83
2023/07/03 06:29:35;;;;;;;15.57;5.22;;;17.70;78.90;;;;;;4915470;29;20112;-84
2023/07/03 06:32:00;;;;;;;11.57;5.53;;;17.60;78.80;;;;;;4901650;29;20111;-86
2023/07/03 06:34:26;;;;;;;14.05;5.15;;;17.70;78.80;;;;;;4908650;29;20036;-87
2023/07/03 06:36:52;;;;;;;10.30;4.35;;;17.60;78.50;;;;;;4899749;29;20053;-87
2023/07/03 06:39:17;;;;;;;11.40;4.60;;;17.70;78.40;;;;;;4896180;29;20032;-87
2023/07/03 06:41:43;;;;;;;12.73;4.35;;;17.70;78.50;;;;;;4906810;29;20047;-86
2023/07/03 06:44:15;;;;;;;11.15;4.40;;;17.70;78.40;;;;;;4887494;29;20028;-86
2023/07/03 06:46:41;;;;;;;14.00;4.75;;;17.80;78.00;;;;;;4890240;29;20040;-86
2023/07/03 06:49:07;;;;;;;13.32;4.93;;;17.80;78.00;;;;;;4897258;29;20025;-86
2023/07/03 06:51:32;;;;;;;10.85;4.10;;;17.80;77.70;;;;;;4904836;29;20566;-86
2023/07/03 06:53:58;;;;;;;13.60;4.20;;;18.00;77.40;;;;;;4903343;29;20592;-84
2023/07/03 06:56:24;;;;;;;15.98;4.57;;;18.00;77.30;;;;;;4909990;29;20076;-86
2023/07/03 06:58:50;;;;;;;13.70;3.97;;;18.00;77.20;;;;;;4894068;29;20032;-87
2023/07/03 07:01:18;;;;;;;12.15;3.63;;;18.00;77.00;;;;;;4904653;29;20036;-85
2023/07/03 07:03:44;;;;;;;13.68;3.88;;;18.20;76.40;;;;;;4914816;29;20040;-85
2023/07/03 07:06:14;;;;;;;13.18;5.40;;;18.30;75.40;;;;;;4903746;29;20040;-85
2023/07/03 07:08:40;;;;;;;12.45;3.88;;;18.40;74.60;;;;;;4903079;29;20622;-85
2023/07/03 07:11:12;;;;;;;9.70;3.42;;;18.50;74.40;;;;;;4916559;29;20051;-86
2023/07/03 07:13:43;;;;;;;10.15;4.38;;;18.70;72.70;;;;;;4919552;29;20060;-85
2023/07/03 07:16:16;;;;;;;11.18;4.05;;;19.00;73.30;;;;;;4919086;29;20043;-86
2023/07/03 07:18:44;;;;;;;10.38;3.83;;;19.50;72.80;;;;;;4918536;29;20071;-86
2023/07/03 07:21:10;;;;;;;12.15;4.22;;;19.80;72.30;;;;;;4920200;29;20032;-85
2023/07/03 07:23:36;;;;;;;11.32;4.00;;;20.00;70.20;;;;;;4917268;29;20038;-86
2023/07/03 07:26:02;;;;;;;11.80;3.55;;;20.20;70.10;;;;;;4920325;29;20035;-86
2023/07/03 07:28:28;;;;;;;9.13;3.25;;;20.30;69.60;;;;;;4919899;29;20024;-86
2023/07/03 07:30:54;;;;;;;8.90;3.40;;;20.50;68.10;;;;;;4900843;29;20078;-86
2023/07/03 07:33:22;;;;;;;10.15;4.10;;;20.30;68.20;;;;;;4897536;29;20439;-86
2023/07/03 07:35:48;;;;;;;12.43;3.88;;;20.50;67.50;;;;;;4919758;29;20024;-87
2023/07/03 07:38:14;;;;;;;10.75;3.58;;;20.80;67.00;;;;;;4900592;29;20021;-89
2023/07/03 07:40:40;;;;;;;12.00;3.88;;;21.10;64.80;;;;;;4920119;29;20035;-90
2023/07/03 07:43:07;;;;;;;13.63;4.43;;;21.40;64.30;;;;;;4903189;29;20123;-78
2023/07/03 07:45:33;;;;;;;11.88;4.28;;;21.70;64.60;;;;;;4899234;29;20040;-83
2023/07/03 07:47:59;;;;;;;11.55;3.33;;;21.90;64.00;;;;;;4916903;29;20076;-82
2023/07/03 07:50:25;;;;;;;11.40;3.75;;;22.20;62.40;;;;;;4900803;29;20029;-81
2023/07/03 07:52:50;;;;;;;12.10;3.67;;;22.10;60.90;;;;;;4899795;29;20518;-82
2023/07/03 07:55:17;;;;;;;12.90;4.20;;;21.90;60.20;;;;;;4902964;29;20025;-82
2023/07/03 07:57:43;;;;;;;12.30;3.75;;;22.00;60.60;;;;;;4915251;29;20032;-83
2023/07/03 08:00:09;;;;;;;10.70;3.50;;;22.40;60.80;;;;;;4898901;29;20028;-82
2023/07/03 08:02:35;;;;;;;11.13;3.97;;;23.00;59.90;;;;;;4916295;29;20036;-82
2023/07/03 08:05:00;;;;;;;12.10;3.20;;;22.60;60.50;;;;;;4916119;29;20522;-86
2023/07/03 08:07:26;;;;;;;10.10;3.53;;;22.30;61.10;;;;;;4919058;29;20028;-83
2023/07/03 08:09:52;;;;;;;11.75;4.30;;;25.00;54.50;;;;;;4915018;29;20059;-84
2023/07/03 08:12:17;;;;;;;12.57;4.35;;;28.30;48.80;;;;;;4898740;29;20036;-84
2023/07/03 08:14:43;;;;;;;11.75;4.40;;;29.60;44.00;;;;;;4917139;29;20106;-84
2023/07/03 08:17:09;;;;;;;9.40;4.00;;;31.40;40.60;;;;;;4915061;29;20036;-84
2023/07/03 08:19:34;;;;;;;12.38;4.90;;;32.40;36.60;;;;;;4912039;29;20071;-83
2023/07/03 08:22:00;;;;;;;10.60;4.13;;;33.30;36.70;;;;;;4916155;29;20024;-83
2023/07/03 08:24:25;;;;;;;10.23;4.03;;;33.60;35.40;;;;;;4918019;29;20032;-83
2023/07/03 08:26:53;;;;;;;9.10;4.85;;;34.40;34.30;;;;;;4917655;29;20831;-83
2023/07/03 08:29:19;;;;;;;10.02;4.47;;;33.80;33.00;;;;;;4901291;29;20028;-83
2023/07/03 08:31:44;;;;;;;12.45;4.10;;;32.20;35.40;;;;;;4918000;29;20056;-83
2023/07/03 08:34:11;;;;;;;11.18;4.07;;;31.50;36.80;;;;;;4898948;29;20040;-83
2023/07/03 08:36:37;;;;;;;11.98;4.25;;;30.50;38.80;;;;;;4914769;29;20494;-83
2023/07/03 08:39:04;;;;;;;12.10;3.72;;;30.00;39.10;;;;;;4901234;29;20071;-83
2023/07/03 08:41:35;;;;;;;12.00;4.10;;;29.00;41.50;;;;;;4918695;29;20020;-83
2023/07/03 08:44:01;;;;;;;10.98;4.07;;;27.90;41.80;;;;;;4916738;29;20474;-83
2023/07/03 08:46:31;;;;;;;11.43;3.55;;;26.80;44.10;;;;;;4918073;29;20020;-83
2023/07/03 08:49:03;;;;;;;11.07;4.25;;;26.40;47.20;;;;;;4917180;29;20197;-82
2023/07/03 08:51:32;;;;;;;10.98;4.35;;;26.30;47.20;;;;;;4915479;29;20396;-83
2023/07/03 08:54:14;;;;;;;11.38;3.65;;;26.30;47.60;;;;;;4913701;29;20064;-82
2023/07/03 08:56:40;;;;;;;10.43;3.50;;;26.20;46.70;;;;;;4901044;29;20032;-82
2023/07/03 08:59:06;;;;;;;11.45;4.03;;;26.00;46.10;;;;;;4901185;29;20039;-83
2023/07/03 09:01:58;;;;;;;10.20;3.85;;;25.80;47.40;;;;;;4916243;29;20050;-83
2023/07/03 09:04:45;;;;;;;10.30;3.47;;;25.80;47.40;;;;;;4913441;29;20383;-82
2023/07/03 09:07:26;;;;;;;8.27;3.45;;;25.50;46.40;;;;;;4897528;29;20123;-82
2023/07/03 09:10:06;;;;;;;12.25;3.35;;;25.60;47.10;;;;;;4913781;29;20099;-82
2023/07/03 09:13:02;;;;;;;10.25;3.90;;;25.70;47.30;;;;;;4896715;29;20024;-82
2023/07/03 09:15:33;;;;;;;10.80;3.42;;;25.40;47.20;;;;;;4908700;29;20036;-82
2023/07/03 09:18:02;;;;;;;9.38;3.70;;;25.20;48.30;;;;;;4899738;29;20029;-81
2023/07/03 09:20:30;;;;;;;9.45;3.50;;;24.90;47.50;;;;;;4916918;29;20028;-81
2023/07/03 09:22:58;;;;;;;12.57;3.60;;;24.80;48.10;;;;;;4901064;29;20032;-82
2023/07/03 09:25:32;;;;;;;9.85;3.22;;;24.70;48.50;;;;;;4918130;29;20067;-82
2023/07/03 09:28:01;;;;;;;9.15;3.20;;;24.60;48.90;;;;;;4915642;29;20035;-82
2023/07/03 09:30:27;;;;;;;11.65;3.53;;;24.30;48.10;;;;;;4916846;29;20136;-82
2023/07/03 09:32:52;;;;;;;9.82;4.15;;;24.20;48.60;;;;;;4898788;29;20123;-82
2023/07/03 09:35:21;;;;;;;12.77;3.42;;;24.20;50.20;;;;;;4899762;29;20119;-82
2023/07/03 09:37:56;;;;;;;8.18;3.40;;;24.10;49.30;;;;;;4917112;29;20024;-82
2023/07/03 09:40:26;;;;;;;10.75;4.18;;;24.00;50.50;;;;;;4916467;29;20028;-81
2023/07/03 09:42:53;;;;;;;9.30;3.63;;;23.90;50.90;;;;;;4917524;29;20767;-81
2023/07/03 09:45:22;;;;;;;9.13;3.50;;;24.10;49.50;;;;;;4900069;29;20145;-82
2023/07/03 09:47:55;;;;;;;12.32;3.90;;;24.20;49.10;;;;;;4917242;29;20027;-82
2023/07/03 09:50:30;;;;;;;8.80;3.78;;;24.30;48.80;;;;;;4913829;29;20036;-82
2023/07/03 09:52:57;;;;;;;7.63;3.25;;;24.40;47.80;;;;;;4901896;29;20067;-81
2023/07/03 09:55:24;;;;;;;9.30;3.97;;;24.40;47.90;;;;;;4917851;29;20451;-81
2023/07/03 09:57:50;;;;;;;11.23;3.35;;;24.60;48.90;;;;;;4899934;29;20510;-82
2023/07/03 10:00:20;;;;;;;14.57;3.90;;;24.80;47.60;;;;;;4910050;29;20036;-81
2023/07/03 10:02:50;;;;;;;8.75;3.03;;;24.80;47.70;;;;;;4901826;29;20387;-81
2023/07/03 10:05:19;;;;;;;7.90;3.60;;;24.80;47.30;;;;;;4916418;29;20059;-81
2023/07/03 10:07:47;;;;;;;6.78;3.08;;;24.70;47.30;;;;;;4911685;29;20020;-83
2023/07/03 10:10:16;;;;;;;10.40;3.80;;;24.60;47.20;;;;;;4885726;29;20036;-83
2023/07/03 10:12:52;;;;;;;9.93;3.63;;;24.60;48.00;;;;;;4917970;29;20111;-86
2023/07/03 10:15:26;;;;;;;9.10;3.72;;;24.70;46.70;;;;;;4900650;29;20036;-86
2023/07/03 10:18:00;;;;;;;8.05;3.58;;;24.90;46.70;;;;;;4896325;29;20115;-87
2023/07/03 10:20:44;;;;;;;10.38;3.85;;;25.10;47.10;;;;;;4917633;29;20036;-84
2023/07/03 10:23:17;;;;;;;9.85;3.95;;;26.10;46.10;;;;;;4900280;29;20395;-83
2023/07/03 10:25:48;;;;;;;9.48;3.50;;;26.80;43.50;;;;;;4914865;29;20043;-82
2023/07/03 10:28:20;;;;;;;16.15;4.00;;;26.90;43.90;;;;;;4914300;29;20083;-83
2023/07/03 10:30:50;;;;;;;10.00;3.97;;;27.30;43.60;;;;;;4920132;29;20056;-84
2023/07/03 10:33:21;;;;;;;11.52;4.38;;;27.20;42.20;;;;;;4904029;29;20029;-80
2023/07/03 10:35:49;;;;;;;8.38;3.20;;;27.10;42.50;;;;;;4902701;29;20091;-84
2023/07/03 10:38:42;;;;;;;10.15;3.53;;;26.80;42.70;;;;;;4918036;29;20119;-82
2023/07/03 10:41:25;;;;;;;6.47;3.13;;;26.50;43.40;;;;;;4919396;29;20046;-82
2023/07/03 10:44:23;;;;;;;9.27;3.42;;;26.20;43.50;;;;;;4917146;29;20067;-83
2023/07/03 10:46:57;;;;;;;12.27;3.78;;;26.20;44.30;;;;;;4921085;29;20525;-81
2023/07/03 10:49:28;;;;;;;8.98;3.40;;;26.40;43.40;;;;;;4898491;29;20099;-83
2023/07/03 10:52:15;;;;;;;8.32;2.95;;;26.60;43.60;;;;;;4920967;29;20400;-89
2023/07/03 10:55:14;;;;;;;7.55;3.17;;;26.70;43.50;;;;;;4918731;29;20100;-84
2023/07/03 10:58:02;;;;;;;8.73;3.05;;;26.60;41.10;;;;;;4902838;29;20135;-88
2023/07/03 11:00:52;;;;;;;8.35;3.20;;;26.40;42.90;;;;;;4903336;29;20024;-84
2023/07/03 11:03:27;;;;;;;5.68;2.95;;;26.40;44.10;;;;;;4905424;29;20036;-85
2023/07/03 11:06:09;;;;;;;10.13;3.20;;;26.40;42.60;;;;;;4917374;29;20064;-84
2023/07/03 11:09:08;;;;;;;9.90;3.25;;;26.50;43.30;;;;;;4918877;29;20047;-83
2023/07/03 11:11:42;;;;;;;11.80;3.22;;;26.00;41.90;;;;;;4918716;29;20420;-84
2023/07/03 11:14:37;;;;;;;8.15;3.10;;;26.00;42.60;;;;;;4914504;29;20100;-85
2023/07/03 11:17:32;;;;;;;7.05;3.03;;;26.00;43.00;;;;;;4919234;29;20477;-84
2023/07/03 11:20:05;;;;;;;8.63;3.13;;;25.90;45.20;;;;;;4829629;29;20042;-83
2023/07/03 11:22:50;;;;;;;6.60;3.17;;;25.90;44.00;;;;;;4917845;29;20502;-83
2023/07/03 11:25:24;;;;;;;6.95;3.28;;;25.80;45.00;;;;;;4900848;29;20032;-83
2023/07/03 11:28:06;;;;;;;8.18;3.28;;;25.90;43.60;;;;;;4917308;29;20020;-85
2023/07/03 11:30:33;;;;;;;7.40;2.67;;;25.80;42.90;;;;;;4915861;29;20036;-83
2023/07/03 11:33:01;;;;;;;7.20;3.13;;;25.70;43.40;;;;;;4919411;29;20040;-83
2023/07/03 11:35:27;;;;;;;7.22;2.88;;;25.70;43.80;;;;;;4901062;29;20035;-83
2023/07/03 11:38:08;;;;;;;7.68;3.15;;;25.60;42.10;;;;;;4918799;29;20017;-84
2023/07/03 11:40:40;;;;;;;10.60;3.42;;;25.60;44.10;;;;;;4900060;29;20032;-84
2023/07/03 11:43:08;;;;;;;8.25;3.28;;;25.60;43.80;;;;;;4902906;29;20036;-84
2023/07/03 11:45:35;;;;;;;6.47;3.05;;;25.50;43.50;;;;;;4901178;29;20044;-84
2023/07/03 11:48:01;;;;;;;6.43;2.85;;;25.60;43.70;;;;;;4919082;29;20875;-83
2023/07/03 11:50:32;;;;;;;7.65;3.42;;;25.70;42.30;;;;;;4917361;29;20142;-84
2023/07/03 11:52:58;;;;;;;10.20;3.28;;;25.60;42.70;;;;;;4919313;29;20470;-83
2023/07/03 11:55:37;;;;;;;9.20;2.80;;;25.70;44.70;;;;;;4918686;29;20035;-83
2023/07/03 11:58:03;;;;;;;8.38;2.40;;;25.70;42.50;;;;;;4919159;29;20021;-84
2023/07/03 12:00:30;;;;;;;7.78;2.95;;;25.70;41.50;;;;;;4903341;29;20110;-83
2023/07/03 12:03:06;;;;;;;7.85;3.00;;;25.50;43.70;;;;;;4917403;29;20087;-84
2023/07/03 12:05:44;;;;;;;8.20;3.35;;;25.50;43.80;;;;;;4918636;29;20032;-83
2023/07/03 12:08:18;;;;;;;7.07;2.85;;;25.30;41.90;;;;;;4915268;29;20029;-83
2023/07/03 12:10:55;;;;;;;9.25;3.08;;;25.40;42.90;;;;;;4919000;29;20031;-84
2023/07/03 12:13:45;;;;;;;8.07;2.83;;;25.40;42.40;;;;;;4916984;29;20024;-83
2023/07/03 12:16:16;;;;;;;7.72;2.75;;;25.50;44.10;;;;;;4917308;29;20032;-83
2023/07/03 12:18:42;;;;;;;8.25;2.67;;;25.40;43.60;;;;;;4918835;29;20052;-84
2023/07/03 12:21:08;;;;;;;8.02;3.10;;;25.30;42.70;;;;;;4916537;29;20083;-83
2023/07/03 12:23:40;;;;;;;9.73;2.92;;;25.30;42.60;;;;;;4917685;29;20028;-83
2023/07/03 12:26:15;;;;;;;7.82;2.78;;;25.30;43.40;;;;;;4901880;29;20032;-83
2023/07/03 12:28:41;;;;;;;7.80;3.25;;;25.40;42.70;;;;;;4918447;29;20028;-84
2023/07/03 12:31:21;;;;;;;8.13;3.10;;;25.30;42.00;;;;;;4915605;29;20091;-83
2023/07/03 12:34:07;;;;;;;8.55;3.05;;;25.40;43.70;;;;;;4918511;29;20028;-82
2023/07/03 12:36:35;;;;;;;11.25;3.17;;;25.30;42.30;;;;;;4914412;29;20047;-83
2023/07/03 12:39:13;;;;;;;7.13;2.95;;;25.30;42.30;;;;;;4918039;29;20024;-83
2023/07/03 12:41:38;;;;;;;8.80;3.38;;;25.40;44.10;;;;;;4897096;29;20029;-83
2023/07/03 12:44:07;;;;;;;6.97;2.65;;;25.40;43.20;;;;;;4913052;29;20804;-79
2023/07/03 12:46:37;;;;;;;9.35;3.25;;;25.40;43.20;;;;;;4914419;29;20028;-82
2023/07/03 12:49:14;;;;;;;6.85;2.80;;;25.50;43.30;;;;;;4918340;29;20028;-82
2023/07/03 12:51:41;;;;;;;8.38;3.08;;;25.60;42.30;;;;;;4899311;29;20143;-82
2023/07/03 12:54:09;;;;;;;8.48;2.83;;;25.60;42.60;;;;;;4914923;29;20064;-82
2023/07/03 12:56:37;;;;;;;10.60;3.28;;;25.60;43.10;;;;;;4900094;29;20044;-82
2023/07/03 12:59:05;;;;;;;10.43;3.28;;;25.60;42.50;;;;;;4901050;29;20025;-81
2023/07/03 13:01:31;;;;;;;5.85;2.70;;;25.70;42.10;;;;;;4918341;29;20084;-82
2023/07/03 13:03:57;;;;;;;6.65;2.60;;;25.70;42.60;;;;;;4901547;29;20040;-82
2023/07/03 13:06:27;;;;;;;6.47;2.78;;;25.80;40.20;;;;;;4913607;29;20511;-82
2023/07/03 13:08:54;;;;;;;5.97;2.55;;;25.70;41.00;;;;;;4909681;29;20024;-82
2023/07/03 13:11:32;;;;;;;8.25;3.10;;;25.80;41.50;;;;;;4901536;29;20126;-82
2023/07/03 13:14:10;;;;;;;7.00;2.80;;;25.70;42.80;;;;;;4914678;29;20067;-81
2023/07/03 13:16:36;;;;;;;6.38;2.58;;;25.70;41.80;;;;;;4918335;29;20554;-82
2023/07/03 13:19:03;;;;;;;10.55;3.22;;;25.80;42.00;;;;;;4919462;29;20068;-82
2023/07/03 13:21:30;;;;;;;8.23;2.38;;;25.70;41.70;;;;;;4900838;29;20039;-81
2023/07/03 13:24:08;;;;;;;7.32;2.70;;;25.60;41.50;;;;;;4913382;29;20032;-81
2023/07/03 13:26:34;;;;;;;7.32;2.42;;;25.80;41.20;;;;;;4915180;29;20561;-82
2023/07/03 13:29:01;;;;;;;6.95;2.78;;;26.00;41.60;;;;;;4915395;29;20083;-82
2023/07/03 13:31:31;;;;;;;10.15;3.20;;;25.90;41.10;;;;;;4917642;29;20044;-82
2023/07/03 13:34:14;;;;;;;6.63;2.53;;;25.90;41.10;;;;;;4918169;29;20028;-82
2023/07/03 13:36:46;;;;;;;9.98;2.97;;;25.90;40.30;;;;;;4917759;29;20024;-81
2023/07/03 13:39:17;;;;;;;8.73;2.65;;;25.90;40.70;;;;;;4900110;29;20095;-82
2023/07/03 13:41:44;;;;;;;8.27;2.63;;;26.00;40.30;;;;;;4900364;29;20108;-83
2023/07/03 13:44:13;;;;;;;7.72;2.88;;;26.10;40.20;;;;;;4918028;29;20080;-82
2023/07/03 13:46:40;;;;;;;9.43;2.90;;;26.20;41.00;;;;;;4914954;29;20040;-83
2023/07/03 13:49:06;;;;;;;9.23;2.97;;;26.10;39.80;;;;;;4899370;29;20036;-83
2023/07/03 13:51:33;;;;;;;9.75;2.80;;;26.10;38.60;;;;;;4916307;29;20036;-82
2023/07/03 13:53:59;;;;;;;6.35;2.72;;;26.10;39.60;;;;;;4900571;29;20032;-82
2023/07/03 13:56:27;;;;;;;8.98;3.13;;;26.10;40.40;;;;;;4900734;29;20024;-82
2023/07/03 13:58:52;;;;;;;10.35;3.30;;;26.10;40.90;;;;;;4896524;29;20039;-81
2023/07/03 14:01:20;;;;;;;8.10;2.97;;;26.20;41.00;;;;;;4917320;29;20391;-82
2023/07/03 14:03:46;;;;;;;7.13;2.65;;;26.20;40.50;;;;;;4916299;29;20436;-83
2023/07/03 14:06:13;;;;;;;7.75;3.10;;;26.30;40.10;;;;;;4915703;29;20379;-83
2023/07/03 14:08:38;;;;;;;7.65;3.17;;;26.30;39.40;;;;;;4916859;29;20035;-82
2023/07/03 14:11:04;;;;;;;6.90;2.47;;;26.30;40.80;;;;;;4917360;29;20044;-82
2023/07/03 14:13:30;;;;;;;6.90;2.45;;;26.30;39.70;;;;;;4917102;29;20762;-83
2023/07/03 14:15:56;;;;;;;6.05;2.97;;;26.20;40.20;;;;;;4908651;29;20040;-82
2023/07/03 14:18:22;;;;;;;7.35;2.80;;;26.30;40.10;;;;;;4916969;29;20032;-84
2023/07/03 14:20:49;;;;;;;7.18;3.03;;;26.30;41.40;;;;;;4916139;29;20036;-82
2023/07/03 14:23:16;;;;;;;6.97;2.60;;;26.30;40.00;;;;;;4916419;29;20029;-82
2023/07/03 14:25:42;;;;;;;7.43;2.75;;;26.30;39.90;;;;;;4899975;29;20039;-82
2023/07/03 14:28:08;;;;;;;7.25;3.22;;;26.20;39.40;;;;;;4912390;29;20029;-83
2023/07/03 14:30:34;;;;;;;9.82;2.72;;;26.40;39.80;;;;;;4900551;29;20163;-84
2023/07/03 14:32:59;;;;;;;7.35;2.80;;;26.50;39.60;;;;;;4914212;29;20067;-82
2023/07/03 14:35:25;;;;;;;8.10;2.53;;;26.50;39.40;;;;;;4910288;29;20092;-81
2023/07/03 14:37:51;;;;;;;6.32;2.60;;;26.40;39.60;;;;;;4916174;29;20020;-83
2023/07/03 14:40:17;;;;;;;6.72;2.33;;;26.40;39.30;;;;;;4896057;29;20039;-83
2023/07/03 14:42:43;;;;;;;5.25;2.70;;;26.30;39.00;;;;;;4915293;29;20115;-83
2023/07/03 14:45:09;;;;;;;8.55;3.00;;;26.30;39.10;;;;;;4899757;29;20049;-83
2023/07/03 14:47:35;;;;;;;7.20;2.65;;;26.30;39.70;;;;;;4900333;29;20084;-81
2023/07/03 14:50:00;;;;;;;5.65;2.60;;;26.10;40.30;;;;;;4900071;29;20395;-81
2023/07/03 14:52:44;;;;;;;5.72;2.90;;;25.90;40.40;;;;;;4898601;29;20123;-81
2023/07/03 14:55:12;;;;;;;5.95;2.67;;;26.00;40.70;;;;;;4898781;29;20443;-82
2023/07/03 14:57:37;;;;;;;10.07;2.75;;;26.20;39.80;;;;;;4914123;29;20059;-86
2023/07/03 15:00:06;;;;;;;6.97;3.20;;;26.30;40.10;;;;;;4916839;29;20024;-81
2023/07/03 15:02:32;;;;;;;7.93;2.67;;;26.40;39.30;;;;;;4900095;29;20120;-83
2023/07/03 15:04:57;;;;;;;7.13;2.75;;;26.50;39.30;;;;;;4911506;29;20158;-83
2023/07/03 15:07:23;;;;;;;8.88;2.70;;;26.50;39.30;;;;;;4910615;29;20039;-83
2023/07/03 15:09:49;;;;;;;7.45;2.78;;;26.30;40.20;;;;;;4908905;29;20031;-84
2023/07/03 15:12:15;;;;;;;7.05;2.80;;;26.30;40.40;;;;;;4909690;29;20035;-83
2023/07/03 15:14:40;;;;;;;8.10;2.85;;;26.40;40.00;;;;;;4910567;29;20122;-83
2023/07/03 15:17:10;;;;;;;5.68;2.45;;;26.60;40.20;;;;;;4904214;29;20032;-83
2023/07/03 15:19:37;;;;;;;9.10;2.97;;;26.60;39.90;;;;;;4920605;29;20048;-83
2023/07/03 15:22:03;;;;;;;8.80;2.70;;;26.60;39.80;;;;;;4904115;29;20036;-83
2023/07/03 15:24:30;;;;;;;10.52;3.00;;;26.50;40.20;;;;;;4904199;29;20039;-83
2023/07/03 15:26:56;;;;;;;5.97;2.45;;;26.50;40.00;;;;;;4910244;29;20528;-83
2023/07/03 15:29:22;;;;;;;7.10;2.42;;;26.60;39.10;;;;;;4902110;29;20505;-83
2023/07/03 15:31:48;;;;;;;10.77;2.92;;;26.50;39.80;;;;;;4902377;29;20046;-85
2023/07/03 15:34:13;;;;;;;6.57;2.85;;;26.50;39.50;;;;;;4919015;29;20044;-84
2023/07/03 15:36:39;;;;;;;7.55;2.80;;;26.50;39.60;;;;;;4916846;29;20668;-84
2023/07/03 15:39:06;;;;;;;6.22;2.42;;;26.30;39.10;;;;;;4902989;29;20096;-84
2023/07/03 15:41:31;;;;;;;6.28;2.67;;;26.30;40.30;;;;;;4919738;29;20566;-84
2023/07/03 15:44:00;;;;;;;8.80;3.00;;;26.10;40.20;;;;;;4898000;29;20058;-83
2023/07/03 15:46:25;;;;;;;6.38;2.35;;;25.90;40.30;;;;;;4902553;29;20072;-86
2023/07/03 15:48:51;;;;;;;9.80;3.20;;;25.80;41.00;;;;;;4904366;29;20032;-84
2023/07/03 15:51:19;;;;;;;9.68;2.88;;;25.70;41.00;;;;;;4902880;29;20039;-84
2023/07/03 15:53:45;;;;;;;7.50;2.80;;;25.80;40.70;;;;;;4913215;29;20499;-84
2023/07/03 15:56:18;;;;;;;10.20;2.70;;;26.00;41.10;;;;;;4904345;29;20025;-84
2023/07/03 15:58:45;;;;;;;11.75;3.60;;;26.10;40.10;;;;;;4920598;29;20109;-84
2023/07/03 16:01:19;;;;;;;6.75;2.70;;;26.10;40.40;;;;;;4919130;29;20394;-84
2023/07/03 16:03:46;;;;;;;7.85;2.78;;;26.30;40.00;;;;;;4910804;29;20509;-84
2023/07/03 16:06:18;;;;;;;7.50;2.60;;;26.30;40.30;;;;;;4885325;29;20056;-89
2023/07/03 16:08:45;;;;;;;8.25;2.50;;;26.30;40.30;;;;;;4916399;29;20566;-90
2023/07/03 16:11:16;;;;;;;5.90;2.30;;;26.30;39.80;;;;;;4921367;29;20053;-92
2023/07/03 16:13:46;;;;;;;7.37;2.80;;;26.30;39.80;;;;;;4887036;29;20518;-90
2023/07/03 16:16:18;;;;;;;6.22;2.85;;;26.30;39.60;;;;;;4919987;29;20355;-90
2023/07/03 16:18:55;;;;;;;9.13;2.40;;;26.40;40.10;;;;;;4919590;29;20115;-88
2023/07/03 16:21:26;;;;;;;6.90;2.60;;;26.00;39.70;;;;;;4909812;29;20080;-82
2023/07/03 16:23:54;;;;;;;5.30;2.35;;;25.90;40.50;;;;;;4903806;29;20119;-80
2023/07/03 16:26:20;;;;;;;7.00;2.47;;;25.90;40.20;;;;;;4895723;29;20043;-91
2023/07/03 16:28:46;;;;;;;6.55;2.78;;;25.80;40.90;;;;;;4900549;29;20624;-88
2023/07/03 16:31:15;;;;;;;7.88;2.80;;;25.60;40.60;;;;;;4892521;29;20049;-88
2023/07/03 16:33:43;;;;;;;7.97;2.50;;;25.40;41.10;;;;;;4901641;29;20565;-88
2023/07/03 16:36:12;;;;;;;6.40;2.92;;;25.70;41.80;;;;;;4915154;29;20025;-88
2023/07/03 16:38:38;;;;;;;7.78;2.70;;;25.80;41.40;;;;;;4919351;29;20061;-88
2023/07/03 16:41:09;;;;;;;6.47;2.58;;;25.80;40.90;;;;;;4899047;29;20419;-88
2023/07/03 16:43:37;;;;;;;8.32;2.80;;;25.60;40.20;;;;;;4918894;29;20040;-87
2023/07/03 16:46:05;;;;;;;6.47;2.53;;;25.40;41.20;;;;;;4902006;29;20032;-87
2023/07/03 16:48:32;;;;;;;6.93;2.85;;;25.30;42.10;;;;;;4918593;29;20043;-88
2023/07/03 16:50:59;;;;;;;7.32;2.78;;;25.10;42.00;;;;;;4901414;29;20915;-87
2023/07/03 16:53:30;;;;;;;9.80;3.03;;;25.10;41.90;;;;;;4898520;29;20028;-90
2023/07/03 16:56:07;;;;;;;5.78;2.50;;;25.20;41.50;;;;;;4915848;29;20103;-89
2023/07/03 16:58:34;;;;;;;8.35;2.63;;;25.30;40.60;;;;;;4918367;29;20027;-87
2023/07/03 17:01:06;;;;;;;5.60;2.42;;;25.50;40.80;;;;;;4900907;29;20039;-88
2023/07/03 17:03:32;;;;;;;6.83;2.67;;;25.70;39.70;;;;;;4915986;29;20043;-87
2023/07/03 17:05:59;;;;;;;6.22;2.65;;;25.70;40.90;;;;;;4899809;29;20084;-89
2023/07/03 17:08:29;;;;;;;6.63;2.55;;;25.80;40.40;;;;;;4900747;29;20067;-90
2023/07/03 17:10:55;;;;;;;6.18;2.53;;;25.80;40.70;;;;;;4904573;29;20445;-88
2023/07/03 17:13:21;;;;;;;5.90;2.90;;;25.80;39.90;;;;;;4904637;29;20514;-87
2023/07/03 17:15:47;;;;;;;6.78;2.55;;;25.80;39.60;;;;;;4901078;29;20032;-87
2023/07/03 17:18:13;;;;;;;9.85;2.67;;;25.80;40.00;;;;;;4912099;29;20671;-86
2023/07/03 17:20:38;;;;;;;5.47;2.33;;;25.60;40.70;;;;;;4893401;29;20027;-83
2023/07/03 17:23:04;;;;;;;7.68;2.45;;;25.50;40.60;;;;;;4900197;29;20508;-89
2023/07/03 17:25:33;;;;;;;8.48;2.80;;;25.50;41.20;;;;;;4918402;29;20099;-89